Terminal Aerodrome Forecast
Issued by NWS

Current Version | Previous Version | Graphics & Text | Print | Product List | Glossary On
Versions: 1 2 3 4 5 6 7 8 9 10 11 12 13 14 15 16 17 18 19 20 21 22 23 24 25
000
FTUS41 KRNK 280534
TAFLWB
TAF
KLWB 280534Z 2806/2906 00000KT 1/4SM FG OVC001
     FM281400 25003KT P6SM BKN080
     FM281800 23005KT P6SM VCTS BKN050CB
     FM290100 24004KT 5SM -SHRA OVC050=

USA.gov is the U.S. government's official web portal to all federal, state and local government web resources and services.